sensor_id;sensor_type;location;lat;lon;timestamp;temperature;humidity
20957;DHT22;10637;47.970;7.830;2024-03-29T00:00:29;7.90;99.90
20957;DHT22;10637;47.970;7.830;2024-03-29T00:05:30;7.80;99.90
20957;DHT22;10637;47.970;7.830;2024-03-29T00:10:31;7.50;99.90
20957;DHT22;10637;47.970;7.830;2024-03-29T00:15:33;7.50;99.90
20957;DHT22;10637;47.970;7.830;2024-03-29T00:20:34;7.40;99.90
20957;DHT22;10637;47.970;7.830;2024-03-29T00:25:35;7.30;99.90
20957;DHT22;10637;47.970;7.830;2024-03-29T00:30:36;7.30;99.90
20957;DHT22;10637;47.970;7.830;2024-03-29T00:35:36;7.30;99.90
20957;DHT22;10637;47.970;7.830;2024-03-29T00:40:37;7.20;99.90
20957;DHT22;10637;47.970;7.830;2024-03-29T00:45:38;7.20;99.90
20957;DHT22;10637;47.970;7.830;2024-03-29T00:50:39;7.20;99.90
20957;DHT22;10637;47.970;7.830;2024-03-29T00:55:40;7.40;99.90
20957;DHT22;10637;47.970;7.830;2024-03-29T01:00:40;7.50;99.90
20957;DHT22;10637;47.970;7.830;2024-03-29T01:05:41;7.70;99.90
20957;DHT22;10637;47.970;7.830;2024-03-29T01:10:42;7.40;99.90
20957;DHT22;10637;47.970;7.830;2024-03-29T01:15:43;7.50;99.90
20957;DHT22;10637;47.970;7.830;2024-03-29T01:20:43;7.40;99.90
20957;DHT22;10637;47.970;7.830;2024-03-29T01:25:44;7.40;99.90
20957;DHT22;10637;47.970;7.830;2024-03-29T01:30:52;7.70;99.90
20957;DHT22;10637;47.970;7.830;2024-03-29T01:35:53;7.90;99.90
20957;DHT22;10637;47.970;7.830;2024-03-29T01:40:54;7.70;99.90
20957;DHT22;10637;47.970;7.830;2024-03-29T01:45:55;7.60;99.90
20957;DHT22;10637;47.970;7.830;2024-03-29T01:50:57;7.80;99.90
20957;DHT22;10637;47.970;7.830;2024-03-29T01:55:59;7.70;99.90
20957;DHT22;10637;47.970;7.830;2024-03-29T02:01:03;7.70;99.90
20957;DHT22;10637;47.970;7.830;2024-03-29T02:06:05;7.90;99.90
20957;DHT22;10637;47.970;7.830;2024-03-29T02:11:07;9.30;99.90
20957;DHT22;10637;47.970;7.830;2024-03-29T02:16:07;9.30;99.90
20957;DHT22;10637;47.970;7.830;2024-03-29T02:21:08;9.30;99.90
20957;DHT22;10637;47.970;7.830;2024-03-29T02:26:10;9.50;99.90
20957;DHT22;10637;47.970;7.830;2024-03-29T02:31:11;9.70;99.90
20957;DHT22;10637;47.970;7.830;2024-03-29T02:36:12;10.30;99.90
20957;DHT22;10637;47.970;7.830;2024-03-29T02:41:14;10.40;99.90
20957;DHT22;10637;47.970;7.830;2024-03-29T02:46:15;10.70;99.90
20957;DHT22;10637;47.970;7.830;2024-03-29T02:51:15;11.40;99.90
20957;DHT22;10637;47.970;7.830;2024-03-29T02:56:16;12.00;99.90
20957;DHT22;10637;47.970;7.830;2024-03-29T03:01:21;11.90;99.90
20957;DHT22;10637;47.970;7.830;2024-03-29T03:06:22;11.90;99.90
20957;DHT22;10637;47.970;7.830;2024-03-29T03:11:23;11.80;99.90
20957;DHT22;10637;47.970;7.830;2024-03-29T03:16:24;11.80;99.90
20957;DHT22;10637;47.970;7.830;2024-03-29T03:21:25;11.50;99.90
20957;DHT22;10637;47.970;7.830;2024-03-29T03:26:26;11.30;99.90
20957;DHT22;10637;47.970;7.830;2024-03-29T03:31:26;11.20;99.90
20957;DHT22;10637;47.970;7.830;2024-03-29T03:36:27;11.10;99.90
20957;DHT22;10637;47.970;7.830;2024-03-29T03:41:28;11.00;99.90
20957;DHT22;10637;47.970;7.830;2024-03-29T03:46:29;10.90;99.90
20957;DHT22;10637;47.970;7.830;2024-03-29T03:51:29;10.70;99.90
20957;DHT22;10637;47.970;7.830;2024-03-29T03:56:30;10.70;99.90
20957;DHT22;10637;47.970;7.830;2024-03-29T04:01:31;10.60;99.90
20957;DHT22;10637;47.970;7.830;2024-03-29T04:06:32;10.70;99.90
20957;DHT22;10637;47.970;7.830;2024-03-29T04:11:33;10.50;99.90
20957;DHT22;10637;47.970;7.830;2024-03-29T04:16:34;10.50;99.90
20957;DHT22;10637;47.970;7.830;2024-03-29T04:21:34;10.60;99.90
20957;DHT22;10637;47.970;7.830;2024-03-29T04:26:36;10.70;99.90
20957;DHT22;10637;47.970;7.830;2024-03-29T04:31:40;10.60;99.90
20957;DHT22;10637;47.970;7.830;2024-03-29T04:36:41;10.50;99.90
20957;DHT22;10637;47.970;7.830;2024-03-29T04:41:41;10.70;99.90
20957;DHT22;10637;47.970;7.830;2024-03-29T04:46:42;10.60;99.90
20957;DHT22;10637;47.970;7.830;2024-03-29T04:51:43;11.00;99.90
20957;DHT22;10637;47.970;7.830;2024-03-29T04:56:44;11.00;99.90
20957;DHT22;10637;47.970;7.830;2024-03-29T05:01:45;10.70;99.90
20957;DHT22;10637;47.970;7.830;2024-03-29T05:06:47;10.60;99.90
20957;DHT22;10637;47.970;7.830;2024-03-29T05:11:48;10.30;99.90
20957;DHT22;10637;47.970;7.830;2024-03-29T05:16:49;10.20;99.90
20957;DHT22;10637;47.970;7.830;2024-03-29T05:21:50;10.00;99.90
20957;DHT22;10637;47.970;7.830;2024-03-29T05:26:51;9.80;99.90
20957;DHT22;10637;47.970;7.830;2024-03-29T05:31:51;9.80;99.90
20957;DHT22;10637;47.970;7.830;2024-03-29T05:36:52;9.70;99.90
20957;DHT22;10637;47.970;7.830;2024-03-29T05:41:53;9.70;99.90
20957;DHT22;10637;47.970;7.830;2024-03-29T05:46:54;11.10;99.90
20957;DHT22;10637;47.970;7.830;2024-03-29T05:51:55;12.20;99.90
20957;DHT22;10637;47.970;7.830;2024-03-29T05:56:56;12.70;99.90
20957;DHT22;10637;47.970;7.830;2024-03-29T06:01:56;13.20;99.90
20957;DHT22;10637;47.970;7.830;2024-03-29T06:07:00;13.60;99.90
20957;DHT22;10637;47.970;7.830;2024-03-29T06:12:01;13.10;99.90
20957;DHT22;10637;47.970;7.830;2024-03-29T06:17:01;12.40;99.90
20957;DHT22;10637;47.970;7.830;2024-03-29T06:22:21;11.90;99.90
20957;DHT22;10637;47.970;7.830;2024-03-29T06:27:22;11.50;99.90
20957;DHT22;10637;47.970;7.830;2024-03-29T06:32:23;11.10;99.90
20957;DHT22;10637;47.970;7.830;2024-03-29T06:37:24;10.80;99.90
20957;DHT22;10637;47.970;7.830;2024-03-29T06:42:28;10.70;99.90
20957;DHT22;10637;47.970;7.830;2024-03-29T06:47:29;10.30;99.90
20957;DHT22;10637;47.970;7.830;2024-03-29T06:52:30;10.30;99.90
20957;DHT22;10637;47.970;7.830;2024-03-29T06:57:31;10.40;99.90
20957;DHT22;10637;47.970;7.830;2024-03-29T07:02:32;10.50;99.90
20957;DHT22;10637;47.970;7.830;2024-03-29T07:07:33;10.40;99.90
20957;DHT22;10637;47.970;7.830;2024-03-29T07:12:34;10.60;99.90
20957;DHT22;10637;47.970;7.830;2024-03-29T07:17:35;10.70;99.90
20957;DHT22;10637;47.970;7.830;2024-03-29T07:22:36;10.70;99.90
20957;DHT22;10637;47.970;7.830;2024-03-29T07:27:36;10.80;99.90
20957;DHT22;10637;47.970;7.830;2024-03-29T07:32:37;10.80;99.90
20957;DHT22;10637;47.970;7.830;2024-03-29T07:37:38;11.00;99.90
20957;DHT22;10637;47.970;7.830;2024-03-29T07:42:40;11.20;99.90
20957;DHT22;10637;47.970;7.830;2024-03-29T07:47:41;11.20;99.90
20957;DHT22;10637;47.970;7.830;2024-03-29T07:52:45;11.40;99.90
20957;DHT22;10637;47.970;7.830;2024-03-29T07:57:45;11.50;99.90
20957;DHT22;10637;47.970;7.830;2024-03-29T08:02:48;11.90;99.90
20957;DHT22;10637;47.970;7.830;2024-03-29T08:07:50;12.30;99.90
20957;DHT22;10637;47.970;7.830;2024-03-29T08:12:51;12.50;99.90
20957;DHT22;10637;47.970;7.830;2024-03-29T08:17:51;12.50;99.90
20957;DHT22;10637;47.970;7.830;2024-03-29T08:22:52;12.60;99.90
20957;DHT22;10637;47.970;7.830;2024-03-29T08:27:55;12.80;99.90
20957;DHT22;10637;47.970;7.830;2024-03-29T08:32:59;12.90;99.90
20957;DHT22;10637;47.970;7.830;2024-03-29T08:38:03;13.00;99.90
20957;DHT22;10637;47.970;7.830;2024-03-29T08:43:04;13.10;99.90
20957;DHT22;10637;47.970;7.830;2024-03-29T08:48:05;13.40;99.90
20957;DHT22;10637;47.970;7.830;2024-03-29T08:53:06;13.40;99.90
20957;DHT22;10637;47.970;7.830;2024-03-29T08:58:07;13.60;99.90
20957;DHT22;10637;47.970;7.830;2024-03-29T09:03:08;13.70;99.90
20957;DHT22;10637;47.970;7.830;2024-03-29T09:08:09;13.70;99.90
20957;DHT22;10637;47.970;7.830;2024-03-29T09:13:10;13.90;99.90
20957;DHT22;10637;47.970;7.830;2024-03-29T09:18:11;14.00;99.90
20957;DHT22;10637;47.970;7.830;2024-03-29T09:23:22;14.10;99.90
20957;DHT22;10637;47.970;7.830;2024-03-29T09:28:24;14.50;99.90
20957;DHT22;10637;47.970;7.830;2024-03-29T09:33:25;14.70;99.90
20957;DHT22;10637;47.970;7.830;2024-03-29T09:38:26;14.90;99.90
20957;DHT22;10637;47.970;7.830;2024-03-29T09:43:28;15.30;99.90
20957;DHT22;10637;47.970;7.830;2024-03-29T09:48:29;15.70;99.90
20957;DHT22;10637;47.970;7.830;2024-03-29T09:53:37;15.90;99.90
20957;DHT22;10637;47.970;7.830;2024-03-29T09:58:38;16.20;99.90
20957;DHT22;10637;47.970;7.830;2024-03-29T10:03:40;16.40;99.90
20957;DHT22;10637;47.970;7.830;2024-03-29T10:08:42;16.60;99.90
20957;DHT22;10637;47.970;7.830;2024-03-29T10:13:43;16.80;99.90
20957;DHT22;10637;47.970;7.830;2024-03-29T10:18:47;16.90;99.90
20957;DHT22;10637;47.970;7.830;2024-03-29T10:23:48;17.00;99.90
20957;DHT22;10637;47.970;7.830;2024-03-29T10:28:49;17.10;99.90
20957;DHT22;10637;47.970;7.830;2024-03-29T10:33:50;17.10;99.90
20957;DHT22;10637;47.970;7.830;2024-03-29T10:38:53;17.10;99.90
20957;DHT22;10637;47.970;7.830;2024-03-29T10:43:55;17.20;99.90
20957;DHT22;10637;47.970;7.830;2024-03-29T10:48:58;17.20;99.90
20957;DHT22;10637;47.970;7.830;2024-03-29T10:53:59;17.20;99.90
20957;DHT22;10637;47.970;7.830;2024-03-29T11:04:22;17.30;99.90
20957;DHT22;10637;47.970;7.830;2024-03-29T11:09:27;17.40;99.90
20957;DHT22;10637;47.970;7.830;2024-03-29T11:14:35;17.40;99.90
20957;DHT22;10637;47.970;7.830;2024-03-29T11:19:37;17.60;99.90
20957;DHT22;10637;47.970;7.830;2024-03-29T11:24:39;17.70;99.90
20957;DHT22;10637;47.970;7.830;2024-03-29T11:29:41;18.10;99.90
20957;DHT22;10637;47.970;7.830;2024-03-29T11:34:44;19.10;99.90
20957;DHT22;10637;47.970;7.830;2024-03-29T11:39:48;19.60;99.90
20957;DHT22;10637;47.970;7.830;2024-03-29T11:44:50;19.30;99.90
20957;DHT22;10637;47.970;7.830;2024-03-29T11:49:56;18.80;99.90
20957;DHT22;10637;47.970;7.830;2024-03-29T11:54:57;18.70;99.90
20957;DHT22;10637;47.970;7.830;2024-03-29T11:59:59;19.40;99.90
20957;DHT22;10637;47.970;7.830;2024-03-29T12:05:00;20.90;99.90
20957;DHT22;10637;47.970;7.830;2024-03-29T12:10:01;22.30;99.90
20957;DHT22;10637;47.970;7.830;2024-03-29T12:15:02;22.90;99.90
20957;DHT22;10637;47.970;7.830;2024-03-29T12:20:03;23.30;99.90
20957;DHT22;10637;47.970;7.830;2024-03-29T12:25:11;23.00;99.90
20957;DHT22;10637;47.970;7.830;2024-03-29T12:30:13;23.40;99.90
20957;DHT22;10637;47.970;7.830;2024-03-29T12:35:15;24.00;99.90
20957;DHT22;10637;47.970;7.830;2024-03-29T12:40:17;23.90;99.90
20957;DHT22;10637;47.970;7.830;2024-03-29T12:45:24;24.50;99.90
20957;DHT22;10637;47.970;7.830;2024-03-29T12:50:27;23.90;99.90
20957;DHT22;10637;47.970;7.830;2024-03-29T12:55:29;23.60;99.90
20957;DHT22;10637;47.970;7.830;2024-03-29T13:00:37;23.40;99.90
20957;DHT22;10637;47.970;7.830;2024-03-29T13:05:39;23.20;99.90
20957;DHT22;10637;47.970;7.830;2024-03-29T13:10:43;23.00;99.90
20957;DHT22;10637;47.970;7.830;2024-03-29T13:15:44;23.30;99.90
20957;DHT22;10637;47.970;7.830;2024-03-29T13:20:47;23.80;99.90
20957;DHT22;10637;47.970;7.830;2024-03-29T13:25:48;24.40;99.90
20957;DHT22;10637;47.970;7.830;2024-03-29T13:30:49;24.90;99.90
20957;DHT22;10637;47.970;7.830;2024-03-29T13:35:53;25.20;99.90
20957;DHT22;10637;47.970;7.830;2024-03-29T13:40:54;25.60;99.90
20957;DHT22;10637;47.970;7.830;2024-03-29T13:45:57;25.50;99.90
20957;DHT22;10637;47.970;7.830;2024-03-29T13:51:00;26.10;99.90
20957;DHT22;10637;47.970;7.830;2024-03-29T13:56:04;26.20;99.20
20957;DHT22;10637;47.970;7.830;2024-03-29T14:01:05;26.10;99.90
20957;DHT22;10637;47.970;7.830;2024-03-29T14:06:06;26.10;99.90
20957;DHT22;10637;47.970;7.830;2024-03-29T14:11:07;25.90;99.80
20957;DHT22;10637;47.970;7.830;2024-03-29T14:16:08;25.30;99.00
20957;DHT22;10637;47.970;7.830;2024-03-29T14:21:09;24.60;99.90
20957;DHT22;10637;47.970;7.830;2024-03-29T14:26:10;24.70;99.90
20957;DHT22;10637;47.970;7.830;2024-03-29T14:31:11;24.90;99.90
20957;DHT22;10637;47.970;7.830;2024-03-29T14:36:11;24.60;99.20
20957;DHT22;10637;47.970;7.830;2024-03-29T14:41:12;24.10;99.90
20957;DHT22;10637;47.970;7.830;2024-03-29T14:46:13;23.80;99.90
20957;DHT22;10637;47.970;7.830;2024-03-29T14:51:16;23.60;99.90
20957;DHT22;10637;47.970;7.830;2024-03-29T14:56:17;23.40;99.90
20957;DHT22;10637;47.970;7.830;2024-03-29T15:01:18;23.30;99.90
20957;DHT22;10637;47.970;7.830;2024-03-29T15:06:18;23.20;99.80
20957;DHT22;10637;47.970;7.830;2024-03-29T15:11:21;22.90;99.40
20957;DHT22;10637;47.970;7.830;2024-03-29T15:16:23;22.90;99.90
20957;DHT22;10637;47.970;7.830;2024-03-29T15:21:28;22.70;98.50
20957;DHT22;10637;47.970;7.830;2024-03-29T15:26:29;22.20;99.90
20957;DHT22;10637;47.970;7.830;2024-03-29T15:31:30;21.80;99.60
20957;DHT22;10637;47.970;7.830;2024-03-29T15:36:31;21.30;99.90
20957;DHT22;10637;47.970;7.830;2024-03-29T15:41:32;21.10;99.90
20957;DHT22;10637;47.970;7.830;2024-03-29T15:46:34;20.80;99.90
20957;DHT22;10637;47.970;7.830;2024-03-29T15:51:35;20.70;99.90
20957;DHT22;10637;47.970;7.830;2024-03-29T15:56:36;20.50;99.90
20957;DHT22;10637;47.970;7.830;2024-03-29T16:01:37;20.20;99.90
20957;DHT22;10637;47.970;7.830;2024-03-29T16:06:38;20.10;99.90
20957;DHT22;10637;47.970;7.830;2024-03-29T16:11:39;19.80;99.90
20957;DHT22;10637;47.970;7.830;2024-03-29T16:16:41;19.70;99.90
20957;DHT22;10637;47.970;7.830;2024-03-29T16:21:42;19.40;99.90
20957;DHT22;10637;47.970;7.830;2024-03-29T16:26:42;19.30;99.90
20957;DHT22;10637;47.970;7.830;2024-03-29T16:31:43;19.00;99.90
20957;DHT22;10637;47.970;7.830;2024-03-29T16:36:44;18.70;99.90
20957;DHT22;10637;47.970;7.830;2024-03-29T16:41:45;18.40;99.90
20957;DHT22;10637;47.970;7.830;2024-03-29T16:46:48;18.30;99.90
20957;DHT22;10637;47.970;7.830;2024-03-29T16:51:49;18.00;99.90
20957;DHT22;10637;47.970;7.830;2024-03-29T16:56:49;17.70;99.90
20957;DHT22;10637;47.970;7.830;2024-03-29T17:01:50;17.50;99.90
20957;DHT22;10637;47.970;7.830;2024-03-29T17:06:51;17.30;99.90
20957;DHT22;10637;47.970;7.830;2024-03-29T17:11:52;17.20;99.90
20957;DHT22;10637;47.970;7.830;2024-03-29T17:16:52;17.10;99.90
20957;DHT22;10637;47.970;7.830;2024-03-29T17:21:56;16.90;99.90
20957;DHT22;10637;47.970;7.830;2024-03-29T17:26:57;16.80;99.90
20957;DHT22;10637;47.970;7.830;2024-03-29T17:31:58;16.60;99.90
20957;DHT22;10637;47.970;7.830;2024-03-29T17:36:59;16.50;99.90
20957;DHT22;10637;47.970;7.830;2024-03-29T17:42:00;16.30;99.90
20957;DHT22;10637;47.970;7.830;2024-03-29T17:47:03;16.10;99.90
20957;DHT22;10637;47.970;7.830;2024-03-29T17:52:04;15.90;99.90
20957;DHT22;10637;47.970;7.830;2024-03-29T17:57:05;15.80;99.90
20957;DHT22;10637;47.970;7.830;2024-03-29T18:02:06;15.50;99.90
20957;DHT22;10637;47.970;7.830;2024-03-29T18:07:07;15.40;99.90
20957;DHT22;10637;47.970;7.830;2024-03-29T18:12:07;15.20;99.90
20957;DHT22;10637;47.970;7.830;2024-03-29T18:17:08;15.00;99.90
20957;DHT22;10637;47.970;7.830;2024-03-29T18:22:09;14.90;99.90
20957;DHT22;10637;47.970;7.830;2024-03-29T18:27:11;14.70;99.90
20957;DHT22;10637;47.970;7.830;2024-03-29T18:32:12;14.60;99.90
20957;DHT22;10637;47.970;7.830;2024-03-29T18:37:13;14.50;99.90
20957;DHT22;10637;47.970;7.830;2024-03-29T18:42:14;14.30;99.90
20957;DHT22;10637;47.970;7.830;2024-03-29T18:47:15;14.20;99.90
20957;DHT22;10637;47.970;7.830;2024-03-29T18:52:16;13.80;99.90
20957;DHT22;10637;47.970;7.830;2024-03-29T18:57:17;13.80;99.90
20957;DHT22;10637;47.970;7.830;2024-03-29T19:02:18;13.40;99.90
20957;DHT22;10637;47.970;7.830;2024-03-29T19:07:18;13.30;99.90
20957;DHT22;10637;47.970;7.830;2024-03-29T19:12:19;13.10;99.90
20957;DHT22;10637;47.970;7.830;2024-03-29T19:17:23;13.10;99.90
20957;DHT22;10637;47.970;7.830;2024-03-29T19:22:24;13.00;99.90
20957;DHT22;10637;47.970;7.830;2024-03-29T19:27:24;12.50;99.90
20957;DHT22;10637;47.970;7.830;2024-03-29T19:32:27;12.30;99.90
20957;DHT22;10637;47.970;7.830;2024-03-29T19:37:28;12.40;99.90
20957;DHT22;10637;47.970;7.830;2024-03-29T19:48:52;12.30;99.90
20957;DHT22;10637;47.970;7.830;2024-03-29T19:53:53;12.20;99.90
20957;DHT22;10637;47.970;7.830;2024-03-29T19:58:55;11.80;99.90
20957;DHT22;10637;47.970;7.830;2024-03-29T20:03:56;11.70;99.90
20957;DHT22;10637;47.970;7.830;2024-03-29T20:08:57;11.70;99.90
20957;DHT22;10637;47.970;7.830;2024-03-29T20:13:58;11.70;99.90
20957;DHT22;10637;47.970;7.830;2024-03-29T20:18:59;11.50;99.90
20957;DHT22;10637;47.970;7.830;2024-03-29T20:30:24;11.40;99.90
20957;DHT22;10637;47.970;7.830;2024-03-29T20:35:25;11.50;99.90
20957;DHT22;10637;47.970;7.830;2024-03-29T20:40:26;11.50;99.90
20957;DHT22;10637;47.970;7.830;2024-03-29T20:45:27;11.50;99.90
20957;DHT22;10637;47.970;7.830;2024-03-29T20:50:28;11.30;99.90
20957;DHT22;10637;47.970;7.830;2024-03-29T20:55:29;11.00;99.90
20957;DHT22;10637;47.970;7.830;2024-03-29T21:00:30;11.10;99.90
20957;DHT22;10637;47.970;7.830;2024-03-29T21:05:30;11.10;99.90
20957;DHT22;10637;47.970;7.830;2024-03-29T21:10:35;11.10;99.90
20957;DHT22;10637;47.970;7.830;2024-03-29T21:15:36;11.20;99.90
20957;DHT22;10637;47.970;7.830;2024-03-29T21:20:37;11.30;99.90
20957;DHT22;10637;47.970;7.830;2024-03-29T21:25:38;11.30;99.90
20957;DHT22;10637;47.970;7.830;2024-03-29T21:30:39;11.30;99.90
20957;DHT22;10637;47.970;7.830;2024-03-29T21:35:40;11.20;99.90
20957;DHT22;10637;47.970;7.830;2024-03-29T21:40:40;11.20;99.90
20957;DHT22;10637;47.970;7.830;2024-03-29T21:45:41;11.30;99.90
20957;DHT22;10637;47.970;7.830;2024-03-29T21:50:43;11.40;99.90
20957;DHT22;10637;47.970;7.830;2024-03-29T21:55:44;11.50;99.90
20957;DHT22;10637;47.970;7.830;2024-03-29T22:00:45;11.60;99.90
20957;DHT22;10637;47.970;7.830;2024-03-29T22:05:45;11.70;99.90
20957;DHT22;10637;47.970;7.830;2024-03-29T22:10:46;11.70;99.90
20957;DHT22;10637;47.970;7.830;2024-03-29T22:15:47;11.80;99.90
20957;DHT22;10637;47.970;7.830;2024-03-29T22:20:48;11.90;99.90
20957;DHT22;10637;47.970;7.830;2024-03-29T22:25:48;11.90;99.90
20957;DHT22;10637;47.970;7.830;2024-03-29T22:30:50;11.90;99.90
20957;DHT22;10637;47.970;7.830;2024-03-29T22:35:50;12.00;99.90
20957;DHT22;10637;47.970;7.830;2024-03-29T22:40:52;12.00;99.90
20957;DHT22;10637;47.970;7.830;2024-03-29T22:45:55;11.90;99.90
20957;DHT22;10637;47.970;7.830;2024-03-29T22:50:56;11.90;99.90
20957;DHT22;10637;47.970;7.830;2024-03-29T22:55:57;11.80;99.90
20957;DHT22;10637;47.970;7.830;2024-03-29T23:00:58;11.80;99.90
20957;DHT22;10637;47.970;7.830;2024-03-29T23:05:58;11.70;99.90
20957;DHT22;10637;47.970;7.830;2024-03-29T23:10:59;11.80;99.90
20957;DHT22;10637;47.970;7.830;2024-03-29T23:16:01;11.90;99.90
20957;DHT22;10637;47.970;7.830;2024-03-29T23:21:04;11.90;99.90
20957;DHT22;10637;47.970;7.830;2024-03-29T23:26:05;11.70;99.90
20957;DHT22;10637;47.970;7.830;2024-03-29T23:31:06;11.40;99.90
20957;DHT22;10637;47.970;7.830;2024-03-29T23:36:07;11.50;99.90
20957;DHT22;10637;47.970;7.830;2024-03-29T23:41:08;11.40;99.90
20957;DHT22;10637;47.970;7.830;2024-03-29T23:46:10;11.50;99.90
20957;DHT22;10637;47.970;7.830;2024-03-29T23:51:11;11.40;99.90
20957;DHT22;10637;47.970;7.830;2024-03-29T23:56:11;11.40;99.90
